Time;durP1;ratioP1;P1;durP2;ratioP2;P2;SDS_P1;SDS_P2;PMS_P1;PMS_P2;Temp;Humidity;BMP_temperature;BMP_pressure;BME280_temperature;BME280_humidity;BME280_pressure;Samples;Min_cycle;Max_cycle;Signal;HPM_P1;HPM_P2
2023/08/20 00:01:58;;;;;;;4.30;1.95;;;18.70;74.20;;;;;;4921874;29;20039;-73
2023/08/20 00:04:26;;;;;;;5.15;2.17;;;18.70;74.30;;;;;;4936844;28;20043;-73
2023/08/20 00:06:52;;;;;;;5.22;2.17;;;18.70;74.30;;;;;;4921728;29;20443;-73
2023/08/20 00:09:18;;;;;;;3.83;2.05;;;18.70;74.30;;;;;;4926752;29;20066;-73
2023/08/20 00:11:43;;;;;;;3.90;1.80;;;18.60;74.10;;;;;;4937247;29;20490;-73
2023/08/20 00:14:16;;;;;;;3.85;1.65;;;18.60;74.20;;;;;;4936890;29;20070;-73
2023/08/20 00:16:43;;;;;;;5.10;1.88;;;18.60;74.20;;;;;;4937102;29;20411;-73
2023/08/20 00:19:09;;;;;;;3.42;2.00;;;18.60;74.30;;;;;;4914719;29;20047;-72
2023/08/20 00:21:35;;;;;;;3.65;1.90;;;18.60;74.30;;;;;;4918484;29;20040;-73
2023/08/20 00:24:01;;;;;;;7.00;2.47;;;18.70;74.40;;;;;;4918275;29;20135;-73
2023/08/20 00:26:27;;;;;;;4.32;1.90;;;18.50;74.20;;;;;;4918774;29;20130;-73
2023/08/20 00:28:53;;;;;;;2.65;1.80;;;18.50;74.30;;;;;;4917229;29;20039;-73
2023/08/20 00:31:19;;;;;;;4.88;2.47;;;18.50;74.40;;;;;;4922134;29;20047;-73
2023/08/20 00:33:44;;;;;;;4.05;1.90;;;18.50;74.50;;;;;;4921632;29;20048;-73
2023/08/20 00:36:10;;;;;;;5.03;2.50;;;18.50;74.60;;;;;;4921757;29;20100;-73
2023/08/20 00:38:36;;;;;;;9.75;4.03;;;18.50;74.60;;;;;;4932721;29;20035;-73
2023/08/20 00:41:01;;;;;;;6.45;3.00;;;18.50;74.50;;;;;;4924892;29;20482;-73
2023/08/20 00:43:27;;;;;;;5.80;3.67;;;18.40;74.30;;;;;;4940866;29;20126;-73
2023/08/20 00:45:53;;;;;;;4.10;2.83;;;18.40;74.30;;;;;;4939904;29;20102;-73
2023/08/20 00:48:19;;;;;;;4.80;2.63;;;18.40;74.10;;;;;;4926754;29;20047;-73
2023/08/20 00:50:45;;;;;;;4.47;2.30;;;18.40;74.00;;;;;;4921725;29;20043;-73
2023/08/20 00:53:13;;;;;;;3.17;2.28;;;18.30;73.80;;;;;;4921355;29;20502;-73
2023/08/20 00:55:39;;;;;;;4.78;2.30;;;18.30;73.90;;;;;;4921690;29;20066;-73
2023/08/20 00:58:06;;;;;;;3.15;1.85;;;18.30;74.10;;;;;;4911218;29;20480;-73
2023/08/20 01:00:31;;;;;;;4.07;1.70;;;18.30;74.20;;;;;;4937176;29;20046;-73
2023/08/20 01:02:57;;;;;;;5.28;2.45;;;18.20;74.30;;;;;;4924565;29;20047;-73
2023/08/20 01:05:23;;;;;;;5.00;2.60;;;18.20;74.40;;;;;;4940111;29;20046;-73
2023/08/20 01:08:04;;;;;;;5.32;2.90;;;18.20;74.50;;;;;;4934963;29;20039;-73
2023/08/20 01:10:53;;;;;;;5.05;2.08;;;18.20;74.40;;;;;;4908422;29;20048;-73
2023/08/20 01:13:19;;;;;;;6.20;2.30;;;18.10;74.50;;;;;;4920940;29;20043;-73
2023/08/20 01:15:45;;;;;;;3.78;2.50;;;18.10;74.50;;;;;;4905887;29;20054;-72
2023/08/20 01:18:10;;;;;;;4.82;2.42;;;18.10;74.60;;;;;;4922461;29;20039;-72
2023/08/20 01:20:41;;;;;;;4.38;2.33;;;18.10;74.60;;;;;;4921167;29;20049;-73
2023/08/20 01:23:19;;;;;;;4.45;2.70;;;18.10;74.50;;;;;;4939815;29;20039;-73
2023/08/20 01:26:18;;;;;;;4.10;2.40;;;18.00;74.30;;;;;;4937425;29;20162;-73
2023/08/20 01:28:44;;;;;;;3.38;2.70;;;18.00;74.20;;;;;;4928859;29;20036;-73
2023/08/20 01:31:12;;;;;;;5.18;2.38;;;18.00;74.40;;;;;;4954774;29;20035;-73
2023/08/20 01:33:38;;;;;;;3.45;2.33;;;18.00;74.60;;;;;;4920822;29;20091;-72
2023/08/20 01:36:09;;;;;;;4.68;3.58;;;18.00;74.70;;;;;;4920451;29;20719;-72
2023/08/20 01:38:35;;;;;;;4.78;2.85;;;18.00;74.80;;;;;;4905231;29;20036;-73
2023/08/20 01:41:01;;;;;;;3.45;1.70;;;17.90;74.80;;;;;;4939016;29;20185;-74
2023/08/20 01:43:27;;;;;;;6.13;2.45;;;17.90;75.10;;;;;;4932395;29;20047;-74
2023/08/20 01:45:53;;;;;;;4.68;2.08;;;17.90;75.20;;;;;;4923272;29;20114;-74
2023/08/20 01:48:18;;;;;;;3.28;2.13;;;17.90;75.20;;;;;;4935970;29;20056;-74
2023/08/20 01:50:45;;;;;;;4.80;2.28;;;18.00;75.30;;;;;;4916116;29;20048;-74
2023/08/20 01:53:11;;;;;;;3.95;2.20;;;17.90;75.20;;;;;;4910285;29;20566;-74
2023/08/20 01:55:37;;;;;;;3.53;2.33;;;17.90;75.30;;;;;;4918749;29;20052;-74
2023/08/20 01:58:03;;;;;;;3.90;2.22;;;17.90;75.30;;;;;;4931505;29;20058;-73
2023/08/20 02:00:30;;;;;;;2.67;2.10;;;17.90;75.30;;;;;;4935654;29;20411;-73
2023/08/20 02:02:56;;;;;;;3.90;2.25;;;17.90;75.40;;;;;;4922784;29;20051;-73
2023/08/20 02:05:22;;;;;;;5.68;2.45;;;17.90;75.40;;;;;;4920773;29;20494;-73
2023/08/20 02:07:47;;;;;;;5.55;2.72;;;17.90;75.30;;;;;;4901263;29;20040;-73
2023/08/20 02:10:13;;;;;;;2.58;1.85;;;17.90;75.30;;;;;;4917424;29;20047;-73
2023/08/20 02:12:40;;;;;;;2.80;2.00;;;17.90;75.20;;;;;;4920639;29;20032;-73
2023/08/20 02:15:07;;;;;;;6.13;2.60;;;17.90;75.10;;;;;;4922752;29;20052;-73
2023/08/20 02:17:33;;;;;;;4.30;2.35;;;17.90;75.00;;;;;;4916929;29;20056;-73
2023/08/20 02:19:58;;;;;;;3.97;2.10;;;17.90;74.50;;;;;;4916931;29;20048;-73
2023/08/20 02:22:24;;;;;;;2.83;1.80;;;17.80;74.10;;;;;;4904125;29;20062;-73
2023/08/20 02:24:50;;;;;;;2.95;2.05;;;17.80;74.10;;;;;;4909605;29;20081;-73
2023/08/20 02:27:15;;;;;;;4.18;2.47;;;17.80;74.00;;;;;;4916628;29;20606;-73
2023/08/20 02:29:41;;;;;;;3.13;1.83;;;17.80;73.80;;;;;;4916717;29;20044;-73
2023/08/20 02:32:07;;;;;;;2.97;2.33;;;17.70;73.70;;;;;;4900768;29;20487;-73
2023/08/20 02:34:33;;;;;;;4.15;1.83;;;17.70;73.70;;;;;;4908101;29;20039;-73
2023/08/20 02:36:58;;;;;;;3.47;1.90;;;17.70;73.80;;;;;;4903253;29;20399;-73
2023/08/20 02:39:24;;;;;;;5.78;2.55;;;17.70;74.30;;;;;;4935290;29;20067;-73
2023/08/20 02:41:50;;;;;;;4.35;2.95;;;17.60;73.40;;;;;;4919129;29;20038;-73
2023/08/20 02:44:16;;;;;;;3.40;1.70;;;17.60;73.10;;;;;;4924125;29;20126;-73
2023/08/20 02:46:44;;;;;;;3.45;2.28;;;17.60;73.40;;;;;;4919269;29;20039;-73
2023/08/20 02:49:10;;;;;;;5.03;3.15;;;17.60;73.90;;;;;;4922529;29;20063;-73
2023/08/20 02:51:36;;;;;;;4.43;2.13;;;17.50;74.10;;;;;;4938281;29;20533;-73
2023/08/20 02:54:02;;;;;;;4.75;1.90;;;17.50;74.40;;;;;;4910652;29;20039;-73
2023/08/20 02:56:27;;;;;;;7.93;3.28;;;17.50;74.60;;;;;;4937822;29;20041;-73
2023/08/20 02:58:53;;;;;;;5.03;2.58;;;17.40;74.70;;;;;;4938145;29;20376;-73
2023/08/20 03:01:23;;;;;;;3.05;1.92;;;17.40;74.80;;;;;;4938046;29;20047;-73
2023/08/20 03:03:49;;;;;;;3.85;2.08;;;17.40;75.10;;;;;;4927365;29;20051;-73
2023/08/20 03:06:15;;;;;;;6.93;3.60;;;17.30;75.20;;;;;;4938037;29;20410;-73
2023/08/20 03:08:40;;;;;;;5.47;3.25;;;17.30;75.30;;;;;;4938181;29;20083;-73
2023/08/20 03:11:06;;;;;;;4.47;2.30;;;17.30;75.30;;;;;;4937943;29;20410;-72
2023/08/20 03:13:32;;;;;;;6.10;3.40;;;17.30;75.40;;;;;;4930575;29;20052;-72
2023/08/20 03:15:58;;;;;;;4.13;2.42;;;17.30;75.60;;;;;;4903231;29;20050;-73
2023/08/20 03:18:23;;;;;;;3.83;2.00;;;17.20;75.60;;;;;;4928919;29;20047;-72
2023/08/20 03:20:49;;;;;;;3.25;1.85;;;17.20;75.80;;;;;;4921169;29;20035;-73
2023/08/20 03:23:15;;;;;;;4.35;1.70;;;17.20;76.00;;;;;;4930959;29;20050;-73
2023/08/20 03:25:41;;;;;;;3.72;2.20;;;17.20;76.10;;;;;;4909962;29;20431;-73
2023/08/20 03:28:06;;;;;;;3.28;1.75;;;17.20;76.20;;;;;;4903191;29;20133;-73
2023/08/20 03:30:33;;;;;;;4.80;2.10;;;17.20;76.20;;;;;;4918705;29;20039;-73
2023/08/20 03:32:59;;;;;;;3.97;2.00;;;17.20;76.20;;;;;;4893466;29;20446;-73
2023/08/20 03:35:25;;;;;;;3.58;1.85;;;17.20;76.30;;;;;;4936676;29;20067;-74
2023/08/20 03:37:50;;;;;;;3.40;2.10;;;17.20;76.30;;;;;;4902803;29;20492;-73
2023/08/20 03:40:18;;;;;;;3.00;1.80;;;17.20;76.30;;;;;;4918835;29;20048;-73
2023/08/20 03:42:44;;;;;;;4.00;1.88;;;17.20;76.30;;;;;;4906761;29;20042;-73
2023/08/20 03:45:10;;;;;;;5.32;2.25;;;17.20;76.40;;;;;;4922758;29;20051;-72
2023/08/20 03:47:36;;;;;;;3.92;2.50;;;17.20;76.30;;;;;;4927414;29;20139;-73
2023/08/20 03:50:03;;;;;;;5.05;2.65;;;17.20;75.70;;;;;;4906003;29;20389;-73
2023/08/20 03:52:29;;;;;;;2.83;1.83;;;17.10;75.00;;;;;;4896745;29;20509;-72
2023/08/20 03:54:55;;;;;;;3.85;1.83;;;17.10;75.10;;;;;;4892784;29;20087;-73
2023/08/20 03:57:21;;;;;;;4.25;2.63;;;17.10;75.50;;;;;;4915173;29;20149;-73
2023/08/20 03:59:47;;;;;;;6.82;2.72;;;17.00;75.60;;;;;;4914711;29;20048;-73
2023/08/20 04:02:13;;;;;;;3.72;1.80;;;17.00;75.80;;;;;;4914698;29;20119;-73
2023/08/20 04:04:39;;;;;;;4.07;1.83;;;17.00;76.00;;;;;;4916274;29;20051;-73
2023/08/20 04:07:04;;;;;;;4.25;2.38;;;17.00;76.20;;;;;;4918735;29;20574;-73
2023/08/20 04:09:32;;;;;;;3.60;2.08;;;17.00;76.30;;;;;;4875108;29;20139;-73
2023/08/20 04:11:57;;;;;;;3.00;2.08;;;17.00;76.30;;;;;;4900103;29;20496;-73
2023/08/20 04:14:23;;;;;;;3.65;2.03;;;17.00;76.40;;;;;;4910191;29;20176;-73
2023/08/20 04:16:48;;;;;;;3.00;1.90;;;17.00;76.40;;;;;;4899937;29;20404;-73
2023/08/20 04:19:14;;;;;;;4.45;2.10;;;17.00;76.40;;;;;;4884540;29;20131;-73
2023/08/20 04:21:40;;;;;;;4.53;1.80;;;17.00;76.40;;;;;;4899913;29;20045;-73
2023/08/20 04:24:06;;;;;;;3.13;2.03;;;17.00;76.40;;;;;;4909542;29;20100;-73
2023/08/20 04:26:31;;;;;;;4.95;2.30;;;17.00;76.30;;;;;;4899973;29;20492;-73
2023/08/20 04:28:57;;;;;;;3.20;2.38;;;17.00;76.20;;;;;;4902830;29;20071;-73
2023/08/20 04:31:23;;;;;;;4.28;2.22;;;17.00;76.10;;;;;;4887601;29;20056;-73
2023/08/20 04:33:48;;;;;;;3.30;2.20;;;17.00;76.10;;;;;;4890187;29;20520;-73
2023/08/20 04:36:14;;;;;;;3.67;2.22;;;17.00;76.00;;;;;;4903109;29;20050;-73
2023/08/20 04:38:40;;;;;;;2.80;2.10;;;17.00;76.00;;;;;;4909015;29;20476;-73
2023/08/20 04:41:05;;;;;;;4.90;2.33;;;17.00;75.90;;;;;;4887901;29;20079;-73
2023/08/20 04:43:31;;;;;;;3.20;1.75;;;17.00;75.80;;;;;;4892780;29;20056;-73
2023/08/20 04:45:57;;;;;;;4.13;2.50;;;17.00;75.70;;;;;;4918465;29;20218;-74
2023/08/20 04:48:23;;;;;;;3.25;1.52;;;17.00;75.60;;;;;;4927785;29;20427;-74
2023/08/20 04:50:48;;;;;;;2.42;1.77;;;17.00;75.50;;;;;;4937056;29;20051;-74
2023/08/20 04:53:14;;;;;;;3.65;2.05;;;17.00;75.50;;;;;;4927374;29;20047;-74
2023/08/20 04:55:40;;;;;;;2.95;1.70;;;17.00;75.40;;;;;;4935114;29;20036;-74
2023/08/20 04:58:05;;;;;;;2.63;1.83;;;17.00;75.20;;;;;;4936998;29;20043;-74
2023/08/20 05:00:31;;;;;;;3.30;1.90;;;17.00;75.10;;;;;;4936637;29;20075;-74
2023/08/20 05:02:58;;;;;;;3.60;2.50;;;17.00;75.00;;;;;;4913826;29;20048;-74
2023/08/20 05:05:24;;;;;;;7.88;2.50;;;17.00;75.10;;;;;;4932828;29;20119;-74
2023/08/20 05:07:50;;;;;;;3.63;2.40;;;17.00;75.20;;;;;;4936992;29;20059;-74
2023/08/20 05:10:16;;;;;;;3.38;2.35;;;17.00;75.30;;;;;;4936624;29;20151;-74
2023/08/20 05:12:41;;;;;;;3.42;1.98;;;17.00;75.10;;;;;;4931541;29;20051;-74
2023/08/20 05:15:07;;;;;;;4.05;2.08;;;17.00;74.90;;;;;;4913506;29;20047;-74
2023/08/20 05:17:33;;;;;;;2.50;2.03;;;17.10;74.90;;;;;;4919786;29;20044;-74
2023/08/20 05:19:59;;;;;;;2.28;1.70;;;17.10;74.80;;;;;;4912908;29;20046;-74
2023/08/20 05:22:24;;;;;;;2.75;1.92;;;17.10;74.80;;;;;;4932613;29;20064;-74
2023/08/20 05:24:50;;;;;;;3.78;2.60;;;17.10;74.80;;;;;;4910083;29;20792;-74
2023/08/20 05:27:17;;;;;;;4.40;2.40;;;17.10;74.90;;;;;;4888791;29;20044;-74
2023/08/20 05:29:43;;;;;;;4.85;2.80;;;17.10;75.10;;;;;;4917686;29;20035;-74
2023/08/20 05:32:09;;;;;;;2.90;2.17;;;17.10;75.30;;;;;;4917250;29;20036;-74
2023/08/20 05:34:35;;;;;;;5.72;2.35;;;17.10;75.40;;;;;;4917255;29;20048;-74
2023/08/20 05:37:01;;;;;;;3.97;2.30;;;17.10;75.60;;;;;;4918023;29;20042;-74
2023/08/20 05:39:27;;;;;;;3.55;2.50;;;17.10;75.80;;;;;;4919768;29;20051;-74
2023/08/20 05:41:56;;;;;;;3.78;2.53;;;17.10;75.90;;;;;;4917258;29;20040;-74
2023/08/20 05:44:22;;;;;;;5.45;3.53;;;17.10;76.10;;;;;;4901605;29;20048;-74
2023/08/20 05:46:48;;;;;;;8.75;4.95;;;17.10;76.40;;;;;;4927913;29;20130;-74
2023/08/20 05:49:18;;;;;;;7.65;4.82;;;17.10;76.90;;;;;;4917208;29;20330;-74
2023/08/20 05:51:44;;;;;;;7.10;5.72;;;17.10;77.30;;;;;;4917196;29;20052;-74
2023/08/20 05:54:10;;;;;;;7.47;5.18;;;17.10;77.70;;;;;;4917190;29;20141;-74
2023/08/20 05:56:36;;;;;;;7.07;4.95;;;17.10;78.10;;;;;;4916160;29;20452;-74
2023/08/20 05:59:02;;;;;;;9.35;6.10;;;17.10;78.70;;;;;;4917039;29;20048;-74
2023/08/20 06:01:28;;;;;;;11.65;5.97;;;17.10;79.50;;;;;;4916768;29;20055;-74
2023/08/20 06:03:54;;;;;;;7.22;5.20;;;17.20;80.60;;;;;;4915926;29;20096;-74
2023/08/20 06:06:19;;;;;;;7.88;4.25;;;17.30;81.70;;;;;;4893353;29;20040;-74
2023/08/20 06:08:45;;;;;;;7.32;4.47;;;17.50;82.10;;;;;;4898279;29;20048;-74
2023/08/20 06:11:11;;;;;;;7.13;3.92;;;17.90;82.40;;;;;;4897908;29;20436;-74
2023/08/20 06:13:36;;;;;;;7.63;3.53;;;18.30;82.10;;;;;;4907438;29;20051;-74
2023/08/20 06:16:02;;;;;;;7.20;3.78;;;18.80;81.30;;;;;;4914933;29;20083;-74
2023/08/20 06:18:28;;;;;;;7.55;3.80;;;19.30;80.10;;;;;;4916675;29;20039;-74
2023/08/20 06:20:53;;;;;;;8.63;3.60;;;19.70;79.40;;;;;;4900726;29;20039;-74
2023/08/20 06:23:19;;;;;;;8.20;3.83;;;20.20;78.80;;;;;;4916518;29;20067;-74
2023/08/20 06:25:45;;;;;;;7.03;3.10;;;20.70;77.10;;;;;;4915354;29;20043;-74
2023/08/20 06:28:11;;;;;;;9.02;3.38;;;21.30;76.10;;;;;;4902883;29;20130;-74
2023/08/20 06:30:37;;;;;;;6.63;2.67;;;21.80;74.40;;;;;;4915481;29;20044;-73
2023/08/20 06:33:03;;;;;;;8.27;3.60;;;22.30;72.60;;;;;;4916230;29;20488;-73
2023/08/20 06:35:29;;;;;;;6.95;3.30;;;22.80;71.10;;;;;;4912289;29;20036;-73
2023/08/20 06:37:54;;;;;;;9.65;3.00;;;23.30;69.60;;;;;;4882343;29;20044;-73
2023/08/20 06:40:20;;;;;;;7.50;2.58;;;23.80;68.10;;;;;;4911248;29;20559;-73
2023/08/20 06:42:46;;;;;;;7.63;2.78;;;24.20;66.20;;;;;;4917133;29;20080;-74
2023/08/20 06:45:12;;;;;;;8.65;2.47;;;24.60;64.70;;;;;;4916667;29;20095;-73
2023/08/20 06:47:37;;;;;;;7.90;3.00;;;24.90;63.50;;;;;;4920090;29;20480;-73
2023/08/20 06:50:04;;;;;;;6.93;2.40;;;25.20;62.00;;;;;;4928759;29;20134;-73
2023/08/20 06:52:30;;;;;;;8.27;3.28;;;25.50;61.10;;;;;;4930078;29;20126;-73
2023/08/20 06:54:55;;;;;;;9.23;3.20;;;25.80;60.10;;;;;;4938209;28;20179;-73
2023/08/20 06:57:21;;;;;;;5.43;2.45;;;26.00;59.50;;;;;;4914987;29;20506;-72
2023/08/20 06:59:47;;;;;;;6.93;2.72;;;26.10;59.20;;;;;;4919211;29;20498;-73
2023/08/20 07:02:12;;;;;;;8.68;2.70;;;26.30;58.90;;;;;;4903829;29;20043;-72
2023/08/20 07:04:38;;;;;;;7.25;2.38;;;26.50;58.30;;;;;;4916460;29;20049;-73
2023/08/20 07:07:07;;;;;;;7.97;2.88;;;26.80;57.90;;;;;;4918261;29;20396;-73
2023/08/20 07:09:33;;;;;;;8.40;3.15;;;27.00;57.30;;;;;;4938220;29;20058;-73
2023/08/20 07:11:59;;;;;;;7.22;2.75;;;27.30;56.90;;;;;;4916225;29;20395;-73
2023/08/20 07:14:25;;;;;;;6.85;2.25;;;27.40;56.50;;;;;;4919280;29;20105;-73
2023/08/20 07:16:51;;;;;;;8.10;3.13;;;27.60;56.00;;;;;;4927772;29;20068;-74
2023/08/20 07:19:16;;;;;;;6.75;2.63;;;27.80;55.50;;;;;;4920171;29;20032;-74
2023/08/20 07:21:42;;;;;;;8.85;3.13;;;28.00;55.40;;;;;;4912035;29;20035;-73
2023/08/20 07:24:08;;;;;;;6.38;2.13;;;28.30;54.90;;;;;;4936115;28;20102;-73
2023/08/20 07:26:33;;;;;;;8.60;3.42;;;28.40;54.20;;;;;;4936715;29;20047;-73
2023/08/20 07:28:59;;;;;;;8.23;2.83;;;28.50;53.90;;;;;;4937719;29;20047;-73
2023/08/20 07:31:30;;;;;;;7.82;2.88;;;28.70;53.80;;;;;;4919064;29;20051;-74
2023/08/20 07:33:57;;;;;;;7.68;2.88;;;28.70;53.30;;;;;;4930609;29;20082;-74
2023/08/20 07:36:25;;;;;;;9.40;3.17;;;28.80;53.30;;;;;;4934972;29;20101;-74
2023/08/20 07:38:52;;;;;;;8.13;2.53;;;28.90;53.30;;;;;;4934604;29;20138;-74
2023/08/20 07:41:19;;;;;;;8.65;2.42;;;29.00;53.00;;;;;;4937593;29;20125;-74
2023/08/20 07:43:46;;;;;;;8.55;2.63;;;29.10;52.50;;;;;;4920520;29;20082;-74
2023/08/20 07:46:12;;;;;;;5.18;2.15;;;29.20;52.10;;;;;;4920274;29;20682;-74
2023/08/20 07:48:38;;;;;;;9.88;3.28;;;29.20;51.90;;;;;;4919679;29;20068;-74
2023/08/20 07:51:04;;;;;;;8.60;2.20;;;29.20;51.50;;;;;;4923783;29;20134;-74
2023/08/20 07:53:31;;;;;;;8.75;3.00;;;29.20;51.40;;;;;;4923596;29;20043;-74
2023/08/20 07:55:56;;;;;;;6.63;2.70;;;29.20;51.50;;;;;;4923053;29;20052;-75
2023/08/20 07:58:22;;;;;;;9.55;3.10;;;29.20;51.70;;;;;;4921004;29;20058;-74
2023/08/20 08:00:48;;;;;;;7.78;2.67;;;29.30;51.60;;;;;;4923133;29;20142;-74
2023/08/20 08:03:17;;;;;;;7.22;2.55;;;29.40;51.10;;;;;;4924027;29;20040;-75
2023/08/20 08:05:50;;;;;;;8.48;2.60;;;29.40;51.20;;;;;;4927016;29;20043;-74
2023/08/20 08:08:19;;;;;;;10.20;3.00;;;29.40;51.10;;;;;;4919902;29;20360;-75
2023/08/20 08:10:45;;;;;;;6.30;1.73;;;29.40;50.90;;;;;;4927385;29;20057;-74
2023/08/20 08:13:16;;;;;;;8.35;2.25;;;29.50;50.40;;;;;;4922225;29;20492;-74
2023/08/20 08:15:41;;;;;;;6.68;2.08;;;29.60;50.00;;;;;;4924498;29;20047;-74
2023/08/20 08:18:08;;;;;;;9.10;2.58;;;29.70;49.60;;;;;;4915660;29;20047;-74
2023/08/20 08:20:34;;;;;;;9.65;2.20;;;29.80;49.60;;;;;;4924583;29;20494;-74
2023/08/20 08:23:00;;;;;;;8.05;2.40;;;29.90;49.20;;;;;;4917688;29;20395;-75
2023/08/20 08:25:26;;;;;;;7.47;2.15;;;30.00;48.80;;;;;;4923971;29;20116;-74
2023/08/20 08:27:52;;;;;;;8.20;2.40;;;30.10;49.00;;;;;;4923822;29;20058;-74
2023/08/20 08:30:18;;;;;;;6.95;2.17;;;30.10;48.60;;;;;;4925777;29;20055;-75
2023/08/20 08:32:43;;;;;;;7.00;1.95;;;30.20;48.40;;;;;;4920016;29;20122;-74
2023/08/20 08:35:09;;;;;;;5.85;2.05;;;30.30;48.40;;;;;;4897535;29;20467;-74
2023/08/20 08:37:35;;;;;;;8.32;1.98;;;30.30;48.00;;;;;;4918949;29;20123;-74
2023/08/20 08:40:05;;;;;;;8.50;2.47;;;30.40;47.40;;;;;;4922523;29;20122;-75
2023/08/20 08:42:33;;;;;;;7.22;1.95;;;30.40;47.30;;;;;;4920481;29;20056;-75
2023/08/20 08:45:00;;;;;;;7.50;1.88;;;30.50;47.30;;;;;;4919844;29;20058;-75
2023/08/20 08:47:26;;;;;;;8.10;1.70;;;30.60;47.20;;;;;;4904101;29;20099;-75
2023/08/20 08:49:56;;;;;;;6.22;1.85;;;30.60;46.90;;;;;;4923356;29;20406;-74
2023/08/20 08:52:26;;;;;;;9.20;2.13;;;30.70;47.20;;;;;;4922197;29;20048;-74
2023/08/20 08:54:52;;;;;;;8.55;1.90;;;30.70;47.10;;;;;;4934222;29;20035;-74
2023/08/20 08:57:19;;;;;;;6.53;1.65;;;30.90;46.80;;;;;;4917628;29;20121;-74
2023/08/20 08:59:45;;;;;;;5.32;1.83;;;30.90;46.00;;;;;;4920704;29;20046;-75
2023/08/20 09:02:12;;;;;;;6.05;1.92;;;31.00;45.80;;;;;;4945992;28;20043;-74
2023/08/20 09:04:41;;;;;;;6.40;1.70;;;31.10;45.50;;;;;;4927131;29;21461;-75
2023/08/20 09:07:15;;;;;;;5.03;1.55;;;31.10;45.20;;;;;;4929377;29;20054;-74
2023/08/20 09:09:45;;;;;;;5.97;1.38;;;31.20;45.20;;;;;;4926434;29;20055;-74
2023/08/20 09:12:16;;;;;;;5.00;1.65;;;31.30;45.20;;;;;;4929021;29;20046;-74
2023/08/20 09:14:46;;;;;;;5.70;1.67;;;31.30;45.40;;;;;;4927011;29;20047;-74
2023/08/20 09:17:12;;;;;;;6.88;1.92;;;31.40;45.30;;;;;;4926783;29;20043;-74
2023/08/20 09:19:38;;;;;;;3.05;1.00;;;31.40;45.00;;;;;;4923378;29;20042;-75
2023/08/20 09:22:04;;;;;;;5.90;1.88;;;31.40;44.90;;;;;;4929927;29;20127;-75
2023/08/20 09:24:38;;;;;;;6.75;2.08;;;31.60;45.10;;;;;;4931647;29;20375;-75
2023/08/20 09:27:05;;;;;;;6.40;1.42;;;31.60;45.20;;;;;;4914842;29;20047;-75
2023/08/20 09:29:51;;;;;;;4.28;1.40;;;31.70;45.50;;;;;;4924878;29;20094;-75
2023/08/20 09:32:19;;;;;;;4.20;1.42;;;31.80;45.60;;;;;;4928607;29;20055;-75
2023/08/20 09:34:45;;;;;;;4.57;1.02;;;31.80;44.50;;;;;;4921042;29;20094;-75
2023/08/20 09:37:15;;;;;;;7.15;1.85;;;31.80;44.70;;;;;;4936984;29;20499;-75
2023/08/20 09:39:41;;;;;;;6.03;1.50;;;31.90;44.20;;;;;;4921401;29;20039;-75
2023/08/20 09:42:09;;;;;;;4.10;1.15;;;31.90;43.90;;;;;;4921203;29;20407;-75
2023/08/20 09:44:40;;;;;;;5.18;1.58;;;31.90;43.70;;;;;;4905296;29;20074;-75
2023/08/20 09:47:16;;;;;;;4.22;1.50;;;31.90;43.50;;;;;;4933617;29;20043;-75
2023/08/20 09:49:44;;;;;;;4.43;1.13;;;31.90;44.10;;;;;;4936639;29;20056;-75
2023/08/20 09:52:11;;;;;;;4.80;1.38;;;31.90;43.60;;;;;;4947501;29;20534;-75
2023/08/20 09:54:54;;;;;;;6.05;1.80;;;32.00;43.80;;;;;;4931342;29;20438;-77
2023/08/20 09:57:37;;;;;;;5.85;1.73;;;32.00;43.80;;;;;;4942866;29;20039;-77
2023/08/20 10:00:09;;;;;;;4.70;1.58;;;32.00;43.50;;;;;;4928210;29;20047;-77
2023/08/20 10:02:35;;;;;;;5.43;1.58;;;31.90;42.60;;;;;;4939494;28;20446;-78
2023/08/20 10:05:04;;;;;;;4.70;1.60;;;31.80;42.30;;;;;;4939205;29;20055;-77
2023/08/20 10:07:32;;;;;;;6.50;1.67;;;31.70;42.20;;;;;;4938999;29;20051;-76
2023/08/20 10:10:00;;;;;;;5.32;1.50;;;31.60;42.50;;;;;;4923273;29;20047;-74
2023/08/20 10:12:28;;;;;;;4.75;1.33;;;31.50;43.00;;;;;;4939146;29;20410;-75
2023/08/20 10:14:55;;;;;;;4.55;1.00;;;31.40;42.80;;;;;;4938921;29;20043;-75
2023/08/20 10:17:22;;;;;;;3.28;0.80;;;31.40;42.60;;;;;;4913440;29;20126;-76
2023/08/20 10:19:48;;;;;;;3.83;1.27;;;31.40;42.60;;;;;;4955325;29;20049;-75
2023/08/20 10:22:14;;;;;;;4.43;1.27;;;31.40;42.70;;;;;;4940589;29;20407;-75
2023/08/20 10:24:52;;;;;;;3.90;0.77;;;31.30;42.80;;;;;;4939702;29;20043;-74
2023/08/20 10:27:31;;;;;;;5.35;1.42;;;31.40;43.50;;;;;;4921622;29;20107;-75
2023/08/20 10:29:58;;;;;;;5.90;1.55;;;31.40;43.10;;;;;;4920423;29;20047;-75
2023/08/20 10:32:58;;;;;;;5.97;1.35;;;31.40;43.10;;;;;;4920676;29;20048;-74
2023/08/20 10:35:45;;;;;;;4.28;1.20;;;31.50;43.90;;;;;;4905676;29;20130;-74
2023/08/20 10:38:16;;;;;;;4.57;1.30;;;31.50;44.00;;;;;;4932667;29;20039;-75
2023/08/20 10:40:49;;;;;;;5.35;1.75;;;31.50;43.80;;;;;;4939031;29;20051;-74
2023/08/20 10:43:26;;;;;;;3.70;0.93;;;31.60;43.30;;;;;;4923285;29;20050;-74
2023/08/20 10:46:04;;;;;;;4.15;1.20;;;31.60;43.20;;;;;;4932939;29;20384;-75
2023/08/20 10:48:33;;;;;;;4.53;1.10;;;31.60;43.60;;;;;;4905328;29;20055;-74
2023/08/20 10:51:13;;;;;;;3.47;1.20;;;31.60;43.50;;;;;;4925273;29;20046;-75
2023/08/20 10:53:40;;;;;;;4.10;1.10;;;31.70;43.70;;;;;;4938589;29;20043;-75
2023/08/20 10:56:17;;;;;;;3.90;1.15;;;31.70;43.60;;;;;;4911506;29;20098;-75
2023/08/20 10:58:47;;;;;;;2.78;0.90;;;31.70;43.10;;;;;;4919879;29;20039;-76
2023/08/20 11:01:17;;;;;;;4.68;1.65;;;31.80;42.30;;;;;;4925111;29;20526;-75
2023/08/20 11:03:45;;;;;;;4.07;0.93;;;31.80;42.50;;;;;;4932515;29;20043;-75
2023/08/20 11:06:11;;;;;;;4.13;0.88;;;31.80;42.20;;;;;;4957005;29;20075;-75
2023/08/20 11:08:39;;;;;;;4.47;1.33;;;31.90;42.30;;;;;;4933047;29;20054;-75
2023/08/20 11:11:05;;;;;;;6.05;1.08;;;32.00;42.30;;;;;;4927777;29;20051;-76
2023/08/20 11:13:35;;;;;;;4.82;1.20;;;32.00;42.00;;;;;;4930193;29;20052;-74
2023/08/20 11:16:03;;;;;;;4.25;1.50;;;32.00;41.50;;;;;;4940327;29;20487;-75
2023/08/20 11:18:30;;;;;;;2.85;1.00;;;32.00;41.90;;;;;;4935379;29;20047;-75
2023/08/20 11:20:55;;;;;;;3.63;1.42;;;32.00;41.70;;;;;;4933203;29;20059;-75
2023/08/20 11:23:22;;;;;;;3.67;0.80;;;32.00;41.40;;;;;;4916824;29;20075;-75
2023/08/20 11:25:48;;;;;;;3.88;0.95;;;32.10;41.20;;;;;;4937428;29;20039;-75
2023/08/20 11:28:13;;;;;;;6.78;1.33;;;32.10;41.30;;;;;;4916733;29;20050;-75
2023/08/20 11:30:39;;;;;;;4.00;1.52;;;32.10;41.10;;;;;;4912585;29;20050;-74
2023/08/20 11:33:05;;;;;;;3.83;1.30;;;32.20;40.90;;;;;;4929704;29;20087;-75
2023/08/20 11:35:32;;;;;;;3.50;0.95;;;32.20;41.00;;;;;;4947189;29;20054;-75
2023/08/20 11:37:58;;;;;;;4.50;1.05;;;32.10;41.10;;;;;;4948822;29;20054;-75
2023/08/20 11:40:24;;;;;;;3.63;1.20;;;32.20;41.30;;;;;;4940438;29;20082;-74
2023/08/20 11:42:50;;;;;;;6.18;1.60;;;32.20;41.20;;;;;;4918670;29;20075;-75
2023/08/20 11:45:16;;;;;;;5.25;1.42;;;32.20;41.10;;;;;;4918002;29;20047;-75
2023/08/20 11:47:42;;;;;;;4.65;1.02;;;32.20;41.30;;;;;;4938259;29;20047;-75
2023/08/20 11:50:09;;;;;;;4.47;1.20;;;32.20;41.40;;;;;;4943339;29;20434;-74
2023/08/20 11:52:36;;;;;;;3.40;1.10;;;32.20;40.90;;;;;;4945157;29;20050;-76
2023/08/20 11:55:03;;;;;;;4.20;1.25;;;32.20;41.10;;;;;;4944728;29;20124;-75
2023/08/20 11:57:29;;;;;;;3.63;1.30;;;32.20;40.90;;;;;;4924575;29;20080;-75
2023/08/20 11:59:59;;;;;;;4.15;1.30;;;32.30;41.30;;;;;;4934344;29;20051;-75
2023/08/20 12:02:27;;;;;;;5.03;1.40;;;32.30;41.30;;;;;;4951352;29;20043;-74
2023/08/20 12:04:56;;;;;;;5.55;1.13;;;32.30;41.40;;;;;;4941806;29;20501;-75
2023/08/20 12:07:26;;;;;;;5.18;1.73;;;32.20;41.50;;;;;;4929505;29;20098;-74
2023/08/20 12:09:56;;;;;;;4.43;1.40;;;32.20;41.70;;;;;;4939728;29;20079;-75
2023/08/20 12:12:22;;;;;;;5.13;2.40;;;32.20;41.50;;;;;;4933016;29;20102;-76
2023/08/20 12:14:49;;;;;;;7.63;2.67;;;32.20;41.40;;;;;;4921581;29;20127;-75
2023/08/20 12:17:18;;;;;;;4.35;1.55;;;32.20;41.20;;;;;;4949688;29;20475;-76
2023/08/20 12:19:45;;;;;;;5.20;1.65;;;32.20;41.00;;;;;;4961086;29;20047;-75
2023/08/20 12:22:11;;;;;;;31.35;15.10;;;32.20;41.30;;;;;;4968197;28;20062;-76
2023/08/20 12:24:37;;;;;;;13.68;5.82;;;32.10;41.20;;;;;;4935022;28;20046;-75
2023/08/20 12:27:03;;;;;;;6.28;2.22;;;32.10;41.30;;;;;;4949191;29;20047;-75
2023/08/20 12:29:29;;;;;;;4.13;1.75;;;32.00;41.50;;;;;;4951611;29;20042;-75
2023/08/20 12:31:55;;;;;;;5.85;1.67;;;31.90;40.90;;;;;;4945216;29;20043;-77
2023/08/20 12:34:25;;;;;;;4.18;1.63;;;31.80;40.70;;;;;;4942466;29;20050;-75
2023/08/20 12:36:51;;;;;;;4.32;1.70;;;31.70;41.20;;;;;;4936492;29;20090;-75
2023/08/20 12:39:17;;;;;;;7.50;2.10;;;31.50;41.60;;;;;;4949911;29;20075;-76
2023/08/20 12:41:43;;;;;;;18.63;8.65;;;31.40;41.90;;;;;;4950134;29;20047;-76
2023/08/20 12:44:08;;;;;;;15.50;6.10;;;31.40;41.90;;;;;;4953457;29;20062;-76
2023/08/20 12:46:34;;;;;;;7.57;2.35;;;31.20;41.60;;;;;;4953272;29;20043;-74